createdAt,value
2019-05-30T00:01:20.869Z,45.21
2019-05-30T00:03:50.929Z,45.08
2019-05-30T00:06:21.067Z,44.96
2019-05-30T00:08:51.563Z,44.95
2019-05-30T00:11:22.024Z,44.53
2019-05-30T00:13:52.038Z,44.73
2019-05-30T00:16:23.943Z,44.17
2019-05-30T00:18:54.673Z,44.52
2019-05-30T00:21:25.098Z,44.53
2019-05-30T00:24:02.081Z,44.62
2019-05-30T00:26:33.211Z,44.60
2019-05-30T00:29:04.649Z,44.61
2019-05-30T00:31:34.727Z,44.48
2019-05-30T00:34:05.859Z,44.58
2019-05-30T00:36:37.912Z,44.75
2019-05-30T00:39:09.209Z,44.80
2019-05-30T00:41:39.306Z,44.77
2019-05-30T00:44:09.997Z,44.69
2019-05-30T00:46:40.568Z,44.84
2019-05-30T00:49:11.375Z,44.91
2019-05-30T00:51:41.952Z,45.03
2019-05-30T00:54:17.485Z,45.06
2019-05-30T00:56:47.923Z,45.20
2019-05-30T00:59:19.112Z,45.41
2019-05-30T01:01:49.229Z,45.40
2019-05-30T01:04:19.581Z,45.54
2019-05-30T01:06:49.612Z,45.72
2019-05-30T01:09:19.878Z,45.86
2019-05-30T01:12:01.064Z,45.97
2019-05-30T01:14:31.203Z,46.17
2019-05-30T01:17:01.687Z,46.28
2019-05-30T01:19:32.585Z,46.48
2019-05-30T01:22:03.429Z,46.65
2019-05-30T01:24:33.690Z,46.80
2019-05-30T01:27:05.503Z,47.07
2019-05-30T01:29:42.081Z,47.17
2019-05-30T01:32:30.658Z,47.34
2019-05-30T01:35:01.996Z,47.65
2019-05-30T01:37:32.557Z,47.82
2019-05-30T01:40:03.936Z,48.13
2019-05-30T01:42:39.189Z,48.32
2019-05-30T01:45:12.030Z,48.61
2019-05-30T01:47:42.206Z,48.87
2019-05-30T01:50:12.658Z,49.05
2019-05-30T01:52:43.335Z,49.21
2019-05-30T01:55:13.437Z,49.50
2019-05-30T01:57:52.893Z,49.67
2019-05-30T02:00:27.661Z,49.84
2019-05-30T02:02:58.791Z,49.96
2019-05-30T02:05:31.657Z,50.17
2019-05-30T02:08:05.092Z,50.25
2019-05-30T02:10:36.571Z,50.50
2019-05-30T02:13:07.805Z,50.73
2019-05-30T02:15:37.998Z,50.94
2019-05-30T02:18:08.143Z,51.10
2019-05-30T02:20:38.309Z,51.17
2019-05-30T02:23:09.965Z,51.25
2019-05-30T02:25:41.549Z,51.48
2019-05-30T02:28:12.078Z,51.61
2019-05-30T02:30:42.479Z,51.63
2019-05-30T02:33:13.167Z,51.80
2019-05-30T02:35:43.395Z,51.85
2019-05-30T02:38:13.505Z,51.87
2019-05-30T02:40:43.606Z,51.97
2019-05-30T02:43:14.425Z,51.99
2019-05-30T02:45:44.494Z,52.00
2019-05-30T02:48:14.521Z,51.99
2019-05-30T02:50:48.352Z,51.99
2019-05-30T02:53:18.880Z,51.98
2019-05-30T02:55:48.941Z,51.86
2019-05-30T02:58:19.146Z,51.85
2019-05-30T03:00:49.296Z,51.75
2019-05-30T03:03:20.698Z,51.68
2019-05-30T03:05:50.969Z,51.57
2019-05-30T03:08:21.639Z,51.36
2019-05-30T03:10:52.194Z,51.22
2019-05-30T03:13:22.491Z,51.17
2019-05-30T03:15:53.255Z,51.00
2019-05-30T03:18:28.927Z,50.93
2019-05-30T03:20:58.992Z,50.84
2019-05-30T03:23:29.054Z,50.83
2019-05-30T03:25:59.489Z,50.72
2019-05-30T03:28:29.567Z,50.63
2019-05-30T03:31:00.119Z,50.48
2019-05-30T03:33:39.037Z,50.40
2019-05-30T03:36:09.026Z,50.42
2019-05-30T03:38:33.789Z,50.38
2019-05-30T03:41:04.710Z,50.40
2019-05-30T03:43:36.274Z,50.45
2019-05-30T03:46:10.599Z,50.51
2019-05-30T03:48:42.293Z,50.67
2019-05-30T03:51:15.121Z,50.51
2019-05-30T03:53:45.346Z,50.50
2019-05-30T03:56:19.651Z,50.43
2019-05-30T03:59:10.281Z,50.50
2019-05-30T04:01:54.833Z,50.52
2019-05-30T04:04:28.639Z,50.43
2019-05-30T04:07:06.866Z,50.44
2019-05-30T04:09:42.803Z,50.51
2019-05-30T04:12:28.793Z,50.27
2019-05-30T04:15:04.249Z,50.25
2019-05-30T04:17:34.257Z,50.25
2019-05-30T04:20:04.964Z,50.25
2019-05-30T04:22:34.999Z,50.33
2019-05-30T04:25:05.685Z,50.44
2019-05-30T04:27:35.813Z,50.38
2019-05-30T04:30:07.892Z,50.44
2019-05-30T04:32:37.907Z,50.47
2019-05-30T04:35:08.128Z,50.44
2019-05-30T04:37:38.482Z,50.59
2019-05-30T04:40:08.834Z,50.52
2019-05-30T04:42:38.973Z,50.61
2019-05-30T04:45:09.719Z,50.55
2019-05-30T04:47:41.339Z,50.50
2019-05-30T04:50:12.217Z,50.54
2019-05-30T04:52:54.029Z,50.46
2019-05-30T04:55:25.209Z,50.44
2019-05-30T04:57:55.262Z,50.49
2019-05-30T05:00:25.337Z,50.40
2019-05-30T05:02:55.555Z,50.41
2019-05-30T05:05:27.069Z,50.48
2019-05-30T05:07:57.651Z,50.77
2019-05-30T05:10:27.767Z,50.71
2019-05-30T05:13:09.213Z,50.55
2019-05-30T05:15:39.385Z,50.51
2019-05-30T05:18:09.917Z,50.58
2019-05-30T05:20:40.551Z,50.50
2019-05-30T05:23:10.752Z,50.47
2019-05-30T05:25:40.929Z,50.55
2019-05-30T05:28:11.005Z,50.49
2019-05-30T05:30:41.627Z,50.54
2019-05-30T05:33:12.654Z,50.33
2019-05-30T05:35:42.782Z,50.51
2019-05-30T05:38:13.051Z,50.70
2019-05-30T05:40:44.655Z,50.72
2019-05-30T05:43:16.719Z,50.68
2019-05-30T05:45:47.314Z,50.73
2019-05-30T05:48:22.602Z,50.67
2019-05-30T05:50:53.149Z,50.59
2019-05-30T05:53:23.197Z,50.55
2019-05-30T05:55:53.281Z,50.55
2019-05-30T05:58:24.404Z,50.41
2019-05-30T06:00:55.476Z,50.45
2019-05-30T06:03:28.292Z,50.40
2019-05-30T06:05:59.576Z,50.23
2019-05-30T06:08:29.615Z,50.20
2019-05-30T06:11:00.199Z,50.29
2019-05-30T06:13:31.939Z,50.06
2019-05-30T06:16:02.323Z,50.06
2019-05-30T06:18:34.548Z,49.80
2019-05-30T06:21:08.955Z,49.80
2019-05-30T06:23:45.414Z,50.07
2019-05-30T06:26:14.507Z,50.07
2019-05-30T06:28:47.089Z,49.37
2019-05-30T06:31:18.392Z,49.37
2019-05-30T06:33:49.279Z,49.41
2019-05-30T06:36:20.930Z,49.57
2019-05-30T06:38:53.362Z,49.52
2019-05-30T06:41:27.756Z,49.39
2019-05-30T06:43:58.609Z,49.18
2019-05-30T06:46:30.788Z,49.18
2019-05-30T06:49:03.355Z,49.40
2019-05-30T06:51:33.999Z,49.49
2019-05-30T06:54:04.728Z,48.96
2019-05-30T06:56:38.427Z,49.05
2019-05-30T06:59:08.847Z,49.05
2019-05-30T07:01:41.258Z,49.41
2019-05-30T07:04:13.595Z,49.41
2019-05-30T07:06:47.407Z,50.20
2019-05-30T07:09:19.663Z,49.65
2019-05-30T07:11:50.800Z,49.68
2019-05-30T07:14:23.156Z,49.52
2019-05-30T07:16:54.646Z,49.33
2019-05-30T07:19:27.402Z,49.22
2019-05-30T07:21:59.194Z,49.10
2019-05-30T07:24:31.922Z,48.96
2019-05-30T07:27:03.354Z,48.72
2019-05-30T07:29:34.330Z,48.46
2019-05-30T07:32:06.340Z,48.74
2019-05-30T07:34:37.647Z,48.83
2019-05-30T07:37:09.001Z,48.80
2019-05-30T07:39:40.127Z,48.69
2019-05-30T07:42:11.488Z,48.35
2019-05-30T07:44:43.565Z,48.24
2019-05-30T07:47:15.345Z,48.50
2019-05-30T07:49:46.442Z,48.35
2019-05-30T07:52:18.620Z,48.47
2019-05-30T07:54:50.315Z,48.52
2019-05-30T07:57:22.878Z,48.98
2019-05-30T07:59:54.399Z,49.38
2019-05-30T08:02:27.402Z,49.45
2019-05-30T08:04:59.899Z,49.34
2019-05-30T08:07:30.677Z,49.79
2019-05-30T08:10:01.031Z,50.69
2019-05-30T08:12:32.038Z,51.59
2019-05-30T08:15:02.162Z,51.90
2019-05-30T08:17:33.618Z,52.16
2019-05-30T08:20:03.938Z,53.00
2019-05-30T08:22:34.226Z,53.49
2019-05-30T08:25:04.855Z,53.20
2019-05-30T08:27:34.949Z,53.32
2019-05-30T08:30:06.455Z,54.02
2019-05-30T08:32:37.018Z,53.64
2019-05-30T08:35:08.411Z,54.05
2019-05-30T08:37:39.401Z,55.37
2019-05-30T08:40:10.629Z,55.03
2019-05-30T08:42:41.211Z,55.06
2019-05-30T08:45:11.976Z,56.28
2019-05-30T08:47:44.587Z,57.63
2019-05-30T08:50:15.560Z,57.86
2019-05-30T08:52:45.698Z,59.17
2019-05-30T08:55:17.434Z,59.65
2019-05-30T08:57:47.547Z,60.51
2019-05-30T09:00:18.037Z,60.82
2019-05-30T09:02:48.718Z,61.72
2019-05-30T09:05:19.297Z,62.39
2019-05-30T09:07:49.739Z,63.11
2019-05-30T09:10:19.819Z,64.31
2019-05-30T09:12:50.916Z,64.48
2019-05-30T09:15:22.382Z,65.15
2019-05-30T09:17:52.486Z,65.15
2019-05-30T09:20:23.357Z,67.06
2019-05-30T09:22:53.587Z,67.25
2019-05-30T09:25:24.222Z,67.25
2019-05-30T09:27:54.441Z,67.76
2019-05-30T09:30:43.270Z,67.94
2019-05-30T09:33:14.921Z,67.94
2019-05-30T09:35:45.355Z,69.49
2019-05-30T09:38:22.379Z,69.21
2019-05-30T09:40:52.623Z,69.21
2019-05-30T09:43:22.747Z,68.96
2019-05-30T09:45:52.894Z,69.56
2019-05-30T09:48:23.040Z,69.56
2019-05-30T09:50:53.581Z,69.85
2019-05-30T09:53:23.839Z,69.85
2019-05-30T09:55:54.291Z,70.63
2019-05-30T09:58:25.017Z,70.95
2019-05-30T10:00:55.136Z,71.42
2019-05-30T10:03:25.646Z,71.87
2019-05-30T10:05:55.990Z,72.36
2019-05-30T10:08:26.489Z,72.56
2019-05-30T10:10:56.686Z,72.52
2019-05-30T10:13:27.700Z,72.52
2019-05-30T10:15:57.826Z,72.81
2019-05-30T10:18:27.977Z,72.68
2019-05-30T10:20:58.375Z,73.15
2019-05-30T10:23:30.450Z,72.92
2019-05-30T10:26:01.576Z,72.92
2019-05-30T10:28:32.686Z,72.42
2019-05-30T10:31:03.277Z,72.42
2019-05-30T10:33:33.367Z,73.87
2019-05-30T10:36:03.719Z,73.87
2019-05-30T10:38:33.713Z,72.70
2019-05-30T10:41:03.792Z,73.29
2019-05-30T10:43:34.257Z,73.35
2019-05-30T10:46:04.924Z,73.35
2019-05-30T10:48:35.123Z,72.95
2019-05-30T10:51:05.450Z,72.95
2019-05-30T10:53:37.676Z,72.77
2019-05-30T10:56:09.526Z,72.55
2019-05-30T10:58:39.610Z,72.55
2019-05-30T11:01:10.093Z,72.15
2019-05-30T11:03:40.102Z,72.15
2019-05-30T11:06:24.793Z,72.03
2019-05-30T11:08:56.922Z,71.73
2019-05-30T11:11:27.218Z,72.01
2019-05-30T11:13:57.568Z,71.92
2019-05-30T11:16:27.745Z,71.92
2019-05-30T11:18:58.933Z,71.47
2019-05-30T11:21:29.154Z,71.63
2019-05-30T11:23:59.352Z,71.22
2019-05-30T11:26:29.872Z,71.10
2019-05-30T11:29:02.660Z,71.10
2019-05-30T11:31:32.868Z,70.80
2019-05-30T11:34:02.944Z,70.92
2019-05-30T11:36:33.044Z,70.75
2019-05-30T11:39:04.471Z,70.60
2019-05-30T11:41:35.407Z,70.49
2019-05-30T11:44:06.407Z,69.96
2019-05-30T11:46:36.940Z,70.25
2019-05-30T11:49:07.153Z,70.55
2019-05-30T11:51:37.217Z,70.67
2019-05-30T11:54:07.256Z,70.78
2019-05-30T11:56:37.667Z,70.69
2019-05-30T11:59:07.786Z,70.81
2019-05-30T12:01:37.906Z,70.97
2019-05-30T12:04:08.523Z,71.29
2019-05-30T12:06:38.993Z,71.01
2019-05-30T12:09:09.389Z,70.78
2019-05-30T12:11:39.503Z,71.20
2019-05-30T12:14:10.805Z,71.51
2019-05-30T12:16:40.927Z,71.84
2019-05-30T12:19:13.578Z,72.13
2019-05-30T12:21:44.500Z,71.76
2019-05-30T12:24:14.741Z,71.87
2019-05-30T12:26:44.887Z,71.83
2019-05-30T12:29:15.816Z,71.74
2019-05-30T12:31:46.146Z,71.14
2019-05-30T12:34:16.345Z,71.59
2019-05-30T12:36:46.598Z,72.03
2019-05-30T12:39:17.576Z,71.69
2019-05-30T12:41:47.898Z,71.85
2019-05-30T12:44:18.211Z,71.75
2019-05-30T12:46:48.343Z,71.65
2019-05-30T12:49:19.641Z,72.08
2019-05-30T12:51:52.626Z,72.33
2019-05-30T12:54:22.776Z,72.54
2019-05-30T12:56:54.492Z,72.78
2019-05-30T12:59:25.640Z,72.74
2019-05-30T13:01:56.814Z,72.96
2019-05-30T13:04:27.205Z,73.39
2019-05-30T13:06:59.525Z,73.26
2019-05-30T13:09:34.405Z,73.29
2019-05-30T13:12:05.246Z,73.41
2019-05-30T13:14:35.434Z,73.80
2019-05-30T13:17:14.649Z,73.74
2019-05-30T13:19:45.558Z,74.03
2019-05-30T13:22:16.042Z,73.50
2019-05-30T13:24:46.387Z,73.57
2019-05-30T13:27:16.548Z,73.74
2019-05-30T13:29:46.593Z,73.98
2019-05-30T13:32:16.830Z,73.80
2019-05-30T13:34:46.985Z,73.46
2019-05-30T13:37:17.110Z,73.24
2019-05-30T13:39:47.573Z,73.29
2019-05-30T13:42:17.619Z,73.31
2019-05-30T13:44:47.651Z,73.31
2019-05-30T13:47:20.033Z,73.16
2019-05-30T13:49:50.572Z,73.13
2019-05-30T13:52:20.640Z,72.97
2019-05-30T13:54:51.216Z,73.06
2019-05-30T13:57:21.445Z,73.08
2019-05-30T13:59:53.178Z,73.17
2019-05-30T14:02:23.385Z,73.11
2019-05-30T14:04:53.840Z,73.25
2019-05-30T14:07:23.914Z,73.17
2019-05-30T14:09:57.252Z,73.22
2019-05-30T14:12:27.387Z,73.21
2019-05-30T14:14:57.678Z,72.94
2019-05-30T14:17:27.751Z,72.84
2019-05-30T14:19:57.821Z,72.64
2019-05-30T14:22:28.316Z,73.01
2019-05-30T14:24:58.413Z,73.13
2019-05-30T14:27:28.515Z,72.97
2019-05-30T14:30:00.710Z,72.91
2019-05-30T14:32:30.827Z,72.90
2019-05-30T14:35:02.321Z,72.88
2019-05-30T14:37:40.639Z,72.61
2019-05-30T14:40:11.443Z,72.45
2019-05-30T14:42:41.973Z,72.64
2019-05-30T14:45:14.935Z,72.23
2019-05-30T14:47:46.264Z,72.14
2019-05-30T14:50:17.308Z,72.09
2019-05-30T14:52:48.298Z,71.95
2019-05-30T14:55:21.729Z,72.19
2019-05-30T14:57:52.265Z,71.97
2019-05-30T15:00:22.732Z,71.82
2019-05-30T15:02:52.910Z,71.59
2019-05-30T15:05:23.286Z,71.91
2019-05-30T15:07:53.520Z,71.50
2019-05-30T15:10:23.576Z,71.77
2019-05-30T15:12:55.720Z,71.79
2019-05-30T15:15:26.969Z,71.76
2019-05-30T15:17:58.219Z,71.21
2019-05-30T15:20:28.311Z,71.08
2019-05-30T15:22:58.745Z,70.61
2019-05-30T15:25:29.737Z,69.98
2019-05-30T15:28:01.348Z,70.12
2019-05-30T15:30:31.654Z,69.76
2019-05-30T15:33:01.698Z,69.00
2019-05-30T15:35:32.202Z,69.16
2019-05-30T15:38:02.362Z,69.02
2019-05-30T15:40:32.429Z,69.64
2019-05-30T15:43:02.603Z,69.11
2019-05-30T15:45:33.060Z,69.25
2019-05-30T15:48:03.310Z,69.06
2019-05-30T15:50:34.750Z,68.51
2019-05-30T15:53:04.973Z,69.00
2019-05-30T15:55:35.536Z,68.76
2019-05-30T15:58:06.238Z,68.85
2019-05-30T16:00:37.245Z,69.09
2019-05-30T16:03:07.327Z,69.39
2019-05-30T16:05:37.357Z,69.61
2019-05-30T16:08:07.818Z,69.76
2019-05-30T16:10:37.814Z,69.94
2019-05-30T16:13:11.351Z,69.89
2019-05-30T16:15:44.316Z,70.05
2019-05-30T16:18:14.262Z,70.12
2019-05-30T16:20:44.614Z,69.97
2019-05-30T16:23:16.592Z,70.08
2019-05-30T16:25:46.989Z,69.98
2019-05-30T16:28:17.844Z,70.20
2019-05-30T16:30:48.162Z,69.98
2019-05-30T16:33:18.480Z,70.22
2019-05-30T16:35:48.589Z,70.00
2019-05-30T16:38:20.118Z,69.96
2019-05-30T16:40:50.227Z,70.19
2019-05-30T16:43:20.452Z,70.44
2019-05-30T16:45:54.189Z,70.78
2019-05-30T16:48:32.810Z,71.11
2019-05-30T16:51:05.491Z,71.30
2019-05-30T16:53:41.042Z,71.57
2019-05-30T16:56:26.285Z,71.91
2019-05-30T16:59:06.588Z,72.16
2019-05-30T17:02:04.952Z,72.26
2019-05-30T17:04:40.378Z,72.36
2019-05-30T17:07:15.323Z,72.46
2019-05-30T17:09:51.951Z,72.24
2019-05-30T17:12:21.649Z,71.72
2019-05-30T17:14:52.107Z,71.65
2019-05-30T17:17:22.162Z,71.78
2019-05-30T17:19:52.283Z,71.67
2019-05-30T17:22:22.775Z,71.53
2019-05-30T17:24:54.580Z,71.41
2019-05-30T17:27:25.296Z,70.54
2019-05-30T17:29:55.710Z,70.49
2019-05-30T17:32:25.967Z,70.04
2019-05-30T17:34:56.000Z,69.57
2019-05-30T17:37:26.787Z,69.47
2019-05-30T17:39:56.838Z,69.56
2019-05-30T17:42:28.996Z,69.74
2019-05-30T17:44:59.103Z,69.08
2019-05-30T17:47:29.559Z,69.13
2019-05-30T17:50:00.403Z,68.72
2019-05-30T17:52:30.474Z,68.99
2019-05-30T17:55:00.495Z,69.20
2019-05-30T17:57:30.790Z,68.91
2019-05-30T18:00:00.860Z,68.91
2019-05-30T18:02:30.875Z,68.56
2019-05-30T18:05:01.177Z,68.79
2019-05-30T18:07:31.681Z,68.94
2019-05-30T18:10:02.217Z,68.70
2019-05-30T18:12:32.346Z,68.16
2019-05-30T18:15:02.451Z,68.19
2019-05-30T18:17:32.524Z,68.31
2019-05-30T18:20:02.706Z,67.86
2019-05-30T18:22:33.125Z,67.77
2019-05-30T18:25:03.247Z,67.79
2019-05-30T18:27:33.951Z,67.81
2019-05-30T18:30:04.810Z,67.99
2019-05-30T18:32:34.938Z,67.93
2019-05-30T18:35:05.754Z,67.95
2019-05-30T18:37:35.875Z,67.74
2019-05-30T18:40:07.083Z,67.72
2019-05-30T18:42:37.781Z,67.88
2019-05-30T18:45:10.359Z,68.30
2019-05-30T18:47:40.735Z,68.29
2019-05-30T18:50:11.554Z,68.24
2019-05-30T18:52:41.627Z,68.34
2019-05-30T18:55:11.856Z,68.39
2019-05-30T18:57:41.953Z,68.24
2019-05-30T19:00:15.655Z,68.13
2019-05-30T19:02:44.859Z,68.14
2019-05-30T19:05:15.060Z,68.36
2019-05-30T19:07:45.494Z,68.25
2019-05-30T19:10:16.067Z,68.28
2019-05-30T19:12:46.180Z,68.55
2019-05-30T19:15:16.353Z,68.49
2019-05-30T19:17:46.900Z,68.46
2019-05-30T19:20:17.511Z,68.78
2019-05-30T19:22:47.641Z,68.98
2019-05-30T19:25:17.699Z,69.16
2019-05-30T19:27:47.919Z,69.28
2019-05-30T19:30:18.321Z,69.43
2019-05-30T19:32:48.881Z,69.56
2019-05-30T19:35:18.999Z,69.58
2019-05-30T19:37:49.649Z,69.60
2019-05-30T19:40:20.130Z,69.70
2019-05-30T19:42:50.250Z,69.83
2019-05-30T19:45:20.719Z,69.91
2019-05-30T19:47:50.802Z,70.06
2019-05-30T19:50:21.262Z,70.25
2019-05-30T19:52:51.406Z,70.36
2019-05-30T19:55:21.804Z,70.55
2019-05-30T19:57:51.936Z,70.60
2019-05-30T20:00:22.865Z,70.68
2019-05-30T20:02:53.051Z,70.76
2019-05-30T20:05:23.108Z,70.79
2019-05-30T20:07:54.581Z,70.75
2019-05-30T20:10:24.668Z,70.73
2019-05-30T20:12:54.782Z,70.61
2019-05-30T20:15:25.411Z,70.56
2019-05-30T20:17:55.473Z,70.49
2019-05-30T20:20:25.550Z,70.40
2019-05-30T20:22:55.790Z,70.26
2019-05-30T20:25:26.007Z,70.23
2019-05-30T20:27:56.523Z,70.28
2019-05-30T20:30:26.885Z,70.22
2019-05-30T20:32:56.952Z,70.24
2019-05-30T20:35:26.998Z,70.24
2019-05-30T20:37:57.133Z,70.17
2019-05-30T20:40:27.201Z,70.16
2019-05-30T20:42:57.777Z,70.23
2019-05-30T20:45:28.708Z,70.31
2019-05-30T20:47:58.843Z,70.34
2019-05-30T20:50:29.383Z,70.40
2019-05-30T20:53:00.113Z,70.39
2019-05-30T20:55:31.212Z,70.38
2019-05-30T20:58:01.275Z,70.43
2019-05-30T21:00:39.988Z,70.44
2019-05-30T21:03:11.174Z,70.54
2019-05-30T21:05:42.457Z,70.65
2019-05-30T21:08:13.726Z,70.79
2019-05-30T21:10:44.665Z,70.94
2019-05-30T21:13:14.764Z,71.09
2019-05-30T21:15:47.313Z,71.08
2019-05-30T21:18:18.950Z,71.08
2019-05-30T21:20:49.034Z,71.08
2019-05-30T21:23:20.724Z,71.10
2019-05-30T21:25:51.602Z,70.96
2019-05-30T21:28:21.679Z,70.95
2019-05-30T21:30:54.839Z,71.00
2019-05-30T21:33:25.189Z,70.91
2019-05-30T21:35:56.068Z,70.86
2019-05-30T21:38:27.274Z,70.83
2019-05-30T21:41:03.095Z,70.80
2019-05-30T21:43:36.983Z,70.78
2019-05-30T21:46:07.163Z,70.97
2019-05-30T21:48:45.106Z,71.15
2019-05-30T21:51:16.260Z,71.15
2019-05-30T21:53:47.603Z,71.20
2019-05-30T21:56:18.135Z,70.98
2019-05-30T21:58:48.355Z,71.03
2019-05-30T22:01:28.112Z,71.00
2019-05-30T22:03:58.222Z,70.86
2019-05-30T22:06:28.421Z,70.51
2019-05-30T22:09:02.792Z,70.22
2019-05-30T22:11:30.784Z,70.09
2019-05-30T22:14:01.062Z,70.11
2019-05-30T22:16:31.275Z,70.23
2019-05-30T22:19:01.704Z,70.20
2019-05-30T22:21:31.947Z,70.45
2019-05-30T22:24:04.808Z,70.65
2019-05-30T22:26:35.609Z,70.71
2019-05-30T22:29:11.378Z,70.73
2019-05-30T22:31:46.627Z,70.84
2019-05-30T22:34:16.760Z,70.96
2019-05-30T22:36:46.941Z,71.07
2019-05-30T22:39:17.054Z,71.08
2019-05-30T22:41:47.926Z,71.11
2019-05-30T22:44:18.107Z,71.06
2019-05-30T22:46:48.178Z,71.07
2019-05-30T22:49:18.257Z,71.05
2019-05-30T22:51:49.003Z,71.13
2019-05-30T22:54:19.673Z,71.18
2019-05-30T22:56:49.695Z,71.32
2019-05-30T22:59:19.877Z,71.40
2019-05-30T23:01:52.015Z,71.61
2019-05-30T23:04:21.836Z,71.77
2019-05-30T23:06:52.445Z,71.91
2019-05-30T23:09:23.363Z,71.94
2019-05-30T23:11:53.865Z,72.08
2019-05-30T23:14:24.052Z,72.22
2019-05-30T23:16:54.634Z,72.31
2019-05-30T23:19:24.699Z,72.38
2019-05-30T23:21:55.247Z,72.51
2019-05-30T23:24:26.331Z,72.58
2019-05-30T23:26:56.400Z,72.72
2019-05-30T23:29:26.531Z,72.92
2019-05-30T23:31:56.733Z,73.01
2019-05-30T23:34:26.864Z,73.21
2019-05-30T23:36:57.302Z,73.34
2019-05-30T23:39:30.113Z,73.46
2019-05-30T23:42:00.242Z,73.46
2019-05-30T23:44:30.513Z,73.43
2019-05-30T23:47:00.711Z,73.44
2019-05-30T23:49:31.164Z,73.41
2019-05-30T23:52:01.505Z,73.48
2019-05-30T23:54:31.578Z,73.56
2019-05-30T23:57:03.813Z,73.73
2019-05-30T23:59:33.853Z,73.76
